Time;durP1;ratioP1;P1;durP2;ratioP2;P2;SDS_P1;SDS_P2;PMS_P1;PMS_P2;Temp;Humidity;BMP_temperature;BMP_pressure;BME280_temperature;BME280_humidity;BME280_pressure;Samples;Min_cycle;Max_cycle;Signal;HPM_P1;HPM_P2
2021/11/12 00:13:29;;;;;;;4.63;3.83;;;18.30;99.90;;;;;;5071264;28;20226;-70
2021/11/12 00:16:01;;;;;;;2.90;2.50;;;18.40;99.90;;;;;;5072529;28;20218;-69
2021/11/12 00:18:31;;;;;;;123.70;117.17;;;18.60;99.90;;;;;;5072131;28;21736;-70
2021/11/12 00:21:00;;;;;;;148.53;140.73;;;18.80;99.90;;;;;;5072445;28;20250;-68
2021/11/12 00:23:30;;;;;;;104.17;98.70;;;18.90;99.90;;;;;;5072303;28;20602;-68
2021/11/12 00:25:59;;;;;;;77.33;73.23;;;19.00;99.90;;;;;;5071583;28;20619;-69
2021/11/12 00:28:30;;;;;;;41.63;39.17;;;19.20;99.90;;;;;;5071557;28;20625;-69
2021/11/12 00:31:04;;;;;;;27.40;25.70;;;19.20;99.90;;;;;;5067466;28;20268;-71
2021/11/12 00:38:51;;;;;;;3.20;2.10;;;19.30;99.90;;;;;;5072022;28;20655;-70
2021/11/12 00:41:33;;;;;;;4.80;2.13;;;19.30;99.90;;;;;;5072002;28;20539;-71
2021/11/12 00:44:15;;;;;;;3.83;1.93;;;19.40;99.90;;;;;;5071117;28;20175;-70
2021/11/12 00:47:01;;;;;;;3.80;2.70;;;19.60;99.90;;;;;;5071002;28;20736;-73
2021/11/12 00:49:32;;;;;;;5.00;2.17;;;19.80;99.90;;;;;;5068962;28;20271;-72
2021/11/12 00:52:10;;;;;;;2.90;2.43;;;19.80;99.90;;;;;;5071145;28;20193;-74
2021/11/12 00:54:38;;;;;;;5.90;2.80;;;19.90;99.90;;;;;;5062825;28;20191;-75
2021/11/12 00:57:07;;;;;;;3.43;3.13;;;19.90;99.90;;;;;;5071749;28;20724;-71
2021/11/12 00:59:34;;;;;;;3.73;2.47;;;20.00;99.90;;;;;;5070690;28;20540;-72
2021/11/12 01:02:02;;;;;;;5.17;2.23;;;20.10;99.90;;;;;;5070603;28;20179;-73
2021/11/12 01:04:29;;;;;;;4.33;2.73;;;19.90;99.90;;;;;;5071467;28;20273;-73
2021/11/12 01:06:56;;;;;;;2.93;1.97;;;20.00;99.90;;;;;;5071172;28;20214;-72
2021/11/12 01:09:24;;;;;;;1.43;1.33;;;20.70;99.90;;;;;;5066261;28;20195;-72
2021/11/12 01:11:51;;;;;;;2.20;2.00;;;21.20;99.90;;;;;;5071285;28;20189;-73
2021/11/12 01:14:25;;;;;;;5.90;2.67;;;21.40;99.90;;;;;;5072169;28;20232;-72
2021/11/12 01:16:53;;;;;;;4.43;1.73;;;21.40;99.90;;;;;;5071946;28;20206;-73
2021/11/12 01:19:20;;;;;;;3.67;2.03;;;21.30;99.90;;;;;;5073621;28;20186;-71
2021/11/12 01:21:47;;;;;;;64.53;61.00;;;20.90;99.90;;;;;;5075408;28;20266;-72
2021/11/12 01:24:16;;;;;;;77.33;73.13;;;20.70;99.90;;;;;;5074016;28;20231;-72
2021/11/12 01:26:44;;;;;;;128.57;121.47;;;20.80;99.90;;;;;;5075430;28;20295;-73
2021/11/12 01:29:12;;;;;;;125.33;118.63;;;20.60;99.90;;;;;;5075638;28;20168;-72
2021/11/12 01:31:39;;;;;;;137.23;129.67;;;20.50;99.90;;;;;;5075573;28;20187;-71
2021/11/12 01:34:08;;;;;;;77.47;73.17;;;20.40;99.90;;;;;;5075774;28;20252;-72
2021/11/12 01:36:45;;;;;;;225.70;213.53;;;20.30;99.90;;;;;;5075430;28;20171;-72
2021/11/12 01:39:20;;;;;;;236.47;223.87;;;20.30;99.90;;;;;;5075749;28;20201;-72
2021/11/12 01:41:52;;;;;;;298.70;282.97;;;20.30;99.90;;;;;;5075191;28;20179;-72
2021/11/12 01:44:37;;;;;;;122.67;116.03;;;20.30;99.90;;;;;;5075412;28;20171;-72
2021/11/12 01:49:36;;;;;;;219.67;207.63;;;20.30;99.90;;;;;;5075122;28;20263;-73
2021/11/12 01:52:11;;;;;;;223.07;210.97;;;20.40;99.90;;;;;;5075132;28;20359;-72
2021/11/12 01:57:30;;;;;;;140.53;132.93;;;20.50;99.90;;;;;;5068132;28;20595;-72
2021/11/12 01:59:57;;;;;;;172.80;163.30;;;20.60;99.90;;;;;;5055118;28;20171;-71
2021/11/12 02:02:26;;;;;;;158.20;149.50;;;20.80;99.90;;;;;;5054683;28;20180;-73
2021/11/12 02:04:54;;;;;;;85.50;80.60;;;21.00;99.90;;;;;;5054268;28;20535;-74
2021/11/12 02:07:21;;;;;;;133.87;126.53;;;21.40;99.90;;;;;;5063818;28;20214;-71
2021/11/12 02:09:49;;;;;;;134.37;126.67;;;21.40;99.90;;;;;;5074784;28;20543;-72
2021/11/12 02:12:28;;;;;;;195.87;185.00;;;21.60;99.90;;;;;;5074652;28;20577;-73
2021/11/12 02:14:57;;;;;;;160.17;150.83;;;21.60;99.90;;;;;;5074954;28;20210;-74
2021/11/12 02:17:28;;;;;;;191.47;180.70;;;21.50;99.90;;;;;;5075326;28;20256;-73
2021/11/12 02:20:04;;;;;;;156.77;147.63;;;21.30;99.90;;;;;;5074870;28;20175;-73
2021/11/12 02:22:34;;;;;;;100.40;94.90;;;21.30;99.90;;;;;;5074915;28;20202;-68
2021/11/12 02:25:09;;;;;;;193.00;182.53;;;21.40;99.90;;;;;;5074992;28;20656;-71
2021/11/12 02:27:44;;;;;;;234.20;221.70;;;21.40;99.90;;;;;;5074891;28;20256;-71
2021/11/12 02:30:20;;;;;;;233.73;220.97;;;21.50;99.90;;;;;;5073155;28;20182;-74
2021/11/12 02:33:04;;;;;;;233.20;220.63;;;21.70;99.90;;;;;;5071613;28;20179;-72
2021/11/12 02:35:35;;;;;;;189.90;179.27;;;21.90;99.90;;;;;;5074491;28;20167;-75
2021/11/12 02:38:04;;;;;;;161.80;152.67;;;22.40;99.90;;;;;;5069692;28;20669;-69
2021/11/12 02:40:33;;;;;;;180.00;169.73;;;22.50;99.90;;;;;;5053994;28;20203;-70
2021/11/12 02:43:02;;;;;;;301.03;284.47;;;22.90;99.90;;;;;;5054169;28;20170;-73
2021/11/12 02:45:30;;;;;;;224.73;212.50;;;22.50;99.90;;;;;;5054227;28;20211;-73
2021/11/12 02:47:58;;;;;;;226.83;214.47;;;22.70;99.90;;;;;;5054204;28;20686;-71
2021/11/12 02:50:25;;;;;;;200.70;189.63;;;23.10;99.90;;;;;;5054538;28;20176;-72
2021/11/12 02:52:59;;;;;;;129.57;122.37;;;23.40;99.90;;;;;;5054502;28;20195;-73
2021/11/12 02:55:27;;;;;;;209.67;198.00;;;23.80;99.90;;;;;;5056450;28;20267;-73
2021/11/12 02:57:54;;;;;;;157.90;149.03;;;24.10;99.90;;;;;;5054095;28;20505;-72
2021/11/12 03:00:25;;;;;;;142.17;133.87;;;24.10;99.90;;;;;;5052639;28;20706;-72
2021/11/12 03:02:53;;;;;;;155.57;146.63;;;24.20;99.90;;;;;;5053286;28;20187;-72
2021/11/12 03:05:21;;;;;;;228.20;215.20;;;24.10;99.90;;;;;;5054139;28;20172;-74
2021/11/12 03:07:48;;;;;;;261.23;245.83;;;23.90;99.90;;;;;;5066124;28;20238;-72
2021/11/12 03:10:16;;;;;;;243.33;229.53;;;24.00;99.90;;;;;;5073647;28;20184;-72
2021/11/12 03:12:45;;;;;;;303.37;286.23;;;24.20;99.90;;;;;;5073862;28;20292;-72
2021/11/12 03:15:12;;;;;;;260.50;245.67;;;24.30;99.90;;;;;;5073711;28;20167;-69
2021/11/12 03:17:41;;;;;;;353.83;333.60;;;24.50;99.90;;;;;;5071593;28;20279;-70
2021/11/12 03:20:12;;;;;;;259.93;245.27;;;24.70;99.90;;;;;;5073925;28;20237;-71
2021/11/12 03:22:47;;;;;;;226.30;213.67;;;24.80;99.90;;;;;;5073563;28;20229;-70
2021/11/12 03:25:52;;;;;;;231.50;218.20;;;24.90;99.90;;;;;;5073416;28;20244;-72
2021/11/12 03:28:16;;;;;;;289.63;272.60;;;24.90;99.90;;;;;;5072028;28;20199;-68
2021/11/12 04:00:54;;;;;;;251.13;236.43;;;21.70;99.90;;;;;;5070952;28;20194;-70
2021/11/12 04:06:20;;;;;;;237.67;223.97;;;21.80;99.90;;;;;;5071416;28;20277;-71
2021/11/12 04:42:00;;;;;;;56.60;53.47;;;25.40;99.90;;;;;;5072439;28;20609;-72
2021/11/12 04:50:18;;;;;;;5.70;5.20;;;25.70;99.90;;;;;;5072501;28;20178;-74
2021/11/12 05:12:42;;;;;;;3.67;1.77;;;26.30;99.90;;;;;;5071404;28;20698;-73
2021/11/12 05:45:34;;;;;;;4.90;3.37;;;23.00;99.90;;;;;;5062602;28;20545;-71
2021/11/12 05:50:23;;;;;;;12.50;8.00;;;23.10;99.90;;;;;;5063427;28;20556;-73
2021/11/12 05:55:36;;;;;;;5.37;4.97;;;22.90;99.90;;;;;;5071366;28;20186;-71
2021/11/12 05:58:03;;;;;;;5.40;2.83;;;22.60;99.90;;;;;;5071109;28;20286;-72
2021/11/12 06:00:30;;;;;;;3.30;1.30;;;22.80;99.90;;;;;;5070470;28;20619;-71
2021/11/12 06:02:58;;;;;;;4.53;2.43;;;23.90;99.90;;;;;;5070196;28;20638;-71
2021/11/12 06:05:25;;;;;;;3.43;1.20;;;24.60;99.90;;;;;;5070213;28;20191;-71
2021/11/12 06:07:52;;;;;;;3.23;1.93;;;24.80;99.90;;;;;;5074038;28;20219;-72
2021/11/12 06:10:20;;;;;;;3.97;2.07;;;24.30;99.90;;;;;;5074804;28;20229;-71
2021/11/12 06:12:49;;;;;;;3.43;1.60;;;23.90;99.90;;;;;;5074295;28;20225;-72
2021/11/12 06:15:16;;;;;;;9.97;2.10;;;23.60;99.90;;;;;;5074024;28;20176;-72
2021/11/12 06:17:44;;;;;;;3.57;2.40;;;22.90;99.90;;;;;;5073647;28;20245;-71
2021/11/12 06:20:12;;;;;;;5.47;2.13;;;22.70;99.90;;;;;;5074487;28;20189;-72
2021/11/12 06:22:39;;;;;;;5.63;2.77;;;22.50;99.90;;;;;;5074514;28;20302;-71
2021/11/12 06:25:07;;;;;;;7.33;6.73;;;22.30;99.90;;;;;;5068863;28;20188;-71
2021/11/12 06:27:35;;;;;;;18.00;16.47;;;21.90;99.90;;;;;;5073709;28;20246;-70
2021/11/12 06:30:05;;;;;;;7.30;4.70;;;22.00;99.90;;;;;;5074189;28;20202;-71
2021/11/12 06:32:33;;;;;;;4.80;1.50;;;23.20;99.90;;;;;;5074814;28;20592;-69
2021/11/12 06:35:01;;;;;;;10.73;1.90;;;23.50;99.90;;;;;;5074611;28;20187;-70
2021/11/12 06:37:28;;;;;;;4.63;2.03;;;23.80;99.90;;;;;;5074579;28;20190;-70
2021/11/12 06:39:56;;;;;;;6.77;6.07;;;23.80;99.90;;;;;;5074523;28;20167;-69
2021/11/12 06:42:25;;;;;;;4.83;2.67;;;23.30;99.90;;;;;;5073555;28;20187;-69
2021/11/12 06:50:16;;;;;;;6.10;1.60;;;23.50;99.90;;;;;;5078387;28;20668;-70
2021/11/12 06:52:48;;;;;;;12.80;11.60;;;23.30;99.90;;;;;;5076044;28;20198;-71
2021/11/12 06:55:16;;;;;;;5.77;4.43;;;23.00;99.90;;;;;;5073871;28;20195;-71
2021/11/12 06:57:45;;;;;;;11.53;7.73;;;23.50;99.90;;;;;;5073267;28;20182;-72
2021/11/12 07:00:16;;;;;;;4.60;4.10;;;24.00;99.90;;;;;;5073723;28;20179;-73
2021/11/12 07:02:44;;;;;;;22.20;20.47;;;24.80;99.90;;;;;;5074112;28;20634;-72
2021/11/12 07:05:13;;;;;;;22.07;20.27;;;24.90;99.90;;;;;;5067396;28;20187;-72
2021/11/12 07:07:41;;;;;;;25.93;24.20;;;24.40;99.90;;;;;;5073606;28;20214;-72
2021/11/12 07:10:09;;;;;;;37.53;35.00;;;23.80;99.90;;;;;;5073529;28;20181;-73
2021/11/12 07:12:37;;;;;;;127.30;119.77;;;23.90;99.90;;;;;;5073592;28;20336;-70
2021/11/12 07:15:05;;;;;;;136.47;128.63;;;24.00;99.90;;;;;;5074014;28;20669;-71
2021/11/12 07:17:32;;;;;;;206.30;193.97;;;23.90;99.90;;;;;;5073260;28;20626;-71
2021/11/12 07:20:00;;;;;;;271.43;256.03;;;23.10;99.90;;;;;;5070755;28;20653;-70
2021/11/12 07:22:27;;;;;;;225.07;212.67;;;22.40;99.90;;;;;;5066032;28;20179;-68
2021/11/12 07:24:54;;;;;;;264.13;248.93;;;21.70;99.90;;;;;;5073404;28;20231;-69
2021/11/12 07:27:22;;;;;;;332.33;313.47;;;21.00;99.90;;;;;;5072654;28;20625;-71
2021/11/12 07:29:49;;;;;;;424.33;400.33;;;20.80;99.90;;;;;;5072939;28;20187;-71
2021/11/12 07:32:17;;;;;;;378.10;356.67;;;20.70;99.90;;;;;;5068832;28;20622;-72
2021/11/12 07:34:47;;;;;;;383.70;362.23;;;20.70;99.90;;;;;;5052276;28;20180;-71
2021/11/12 07:37:15;;;;;;;423.07;399.97;;;20.60;99.90;;;;;;5068783;28;20715;-71
2021/11/12 07:42:29;;;;;;;417.73;395.13;;;20.50;99.90;;;;;;5073046;28;20183;-70
2021/11/12 07:45:04;;;;;;;375.20;355.10;;;20.50;99.90;;;;;;5076355;28;20258;-72
2021/11/12 07:47:32;;;;;;;222.50;209.67;;;20.20;99.90;;;;;;5072778;28;20675;-72
2021/11/12 07:50:03;;;;;;;267.97;252.97;;;20.00;99.90;;;;;;5072875;28;20178;-71
2021/11/12 07:52:33;;;;;;;431.30;407.47;;;19.90;99.90;;;;;;5072821;28;20553;-71
2021/11/12 07:55:01;;;;;;;380.13;359.20;;;19.80;99.90;;;;;;5073100;28;20171;-70
2021/11/12 07:57:29;;;;;;;356.70;337.67;;;19.80;99.90;;;;;;5072534;28;20172;-71
2021/11/12 07:59:56;;;;;;;307.07;290.77;;;19.70;99.90;;;;;;5061952;28;20174;-71
2021/11/12 08:02:24;;;;;;;484.00;457.77;;;19.60;99.90;;;;;;5073063;28;20175;-70
2021/11/12 08:04:59;;;;;;;302.37;286.17;;;19.60;99.90;;;;;;5072983;28;20224;-71
2021/11/12 08:07:29;;;;;;;292.93;277.07;;;19.60;99.90;;;;;;5072574;28;20578;-71
2021/11/12 08:09:59;;;;;;;227.60;215.27;;;19.60;99.90;;;;;;5072093;28;20214;-71
2021/11/12 08:12:32;;;;;;;266.87;251.80;;;19.60;99.90;;;;;;5069584;28;20235;-70
2021/11/12 08:20:21;;;;;;;278.10;262.63;;;19.40;99.90;;;;;;5072848;28;20186;-73
2021/11/12 08:25:22;;;;;;;451.80;427.60;;;19.20;99.90;;;;;;5066665;28;20625;-70
2021/11/12 08:41:11;;;;;;;486.53;459.97;;;18.90;99.90;;;;;;5072133;28;20190;-71
2021/11/12 08:43:44;;;;;;;421.00;398.53;;;19.00;99.90;;;;;;5074530;28;20192;-71
2021/11/12 08:48:52;;;;;;;520.90;491.90;;;18.90;99.90;;;;;;5071474;28;20654;-69
2021/11/12 08:51:21;;;;;;;597.57;561.83;;;18.90;99.90;;;;;;5071490;28;20190;-71
2021/11/12 08:53:49;;;;;;;502.63;474.63;;;18.80;99.90;;;;;;5071574;28;20262;-71
2021/11/12 08:56:18;;;;;;;519.73;490.30;;;18.60;99.90;;;;;;5066673;28;20192;-71
2021/11/12 08:58:50;;;;;;;503.83;474.87;;;18.60;99.90;;;;;;5072143;28;20191;-71
2021/11/12 09:01:18;;;;;;;645.23;604.67;;;18.60;99.90;;;;;;5071715;28;20795;-71
2021/11/12 09:03:46;;;;;;;509.53;481.10;;;18.50;99.90;;;;;;5069668;28;20546;-71
2021/11/12 09:06:14;;;;;;;437.33;414.10;;;18.50;99.90;;;;;;5072018;28;20195;-71
2021/11/12 09:08:41;;;;;;;466.53;440.80;;;18.50;99.90;;;;;;5071871;28;20187;-71
2021/11/12 09:11:10;;;;;;;488.17;461.03;;;18.40;99.90;;;;;;5071820;28;20243;-71
2021/11/12 09:13:49;;;;;;;424.43;401.77;;;18.30;99.90;;;;;;5071869;28;20234;-71
2021/11/12 09:16:17;;;;;;;401.27;380.30;;;18.30;99.90;;;;;;5071970;28;20182;-71
2021/11/12 09:18:48;;;;;;;485.23;458.10;;;18.30;99.90;;;;;;5071094;28;20214;-71
2021/11/12 09:21:17;;;;;;;398.83;377.53;;;18.30;99.90;;;;;;5072509;28;20175;-71
2021/11/12 09:23:45;;;;;;;475.73;449.97;;;18.20;99.90;;;;;;5072166;28;20175;-71
2021/11/12 09:26:13;;;;;;;323.40;306.43;;;18.20;99.90;;;;;;5071962;28;20194;-71
2021/11/12 09:28:40;;;;;;;392.97;372.13;;;18.20;99.90;;;;;;5071559;28;20227;-72
2021/11/12 09:31:08;;;;;;;390.67;369.40;;;18.20;99.90;;;;;;5070798;28;20257;-71
2021/11/12 09:33:37;;;;;;;391.60;370.73;;;18.10;99.90;;;;;;5071254;28;20206;-71
2021/11/12 09:36:08;;;;;;;318.23;300.97;;;18.20;99.90;;;;;;5071837;28;20593;-72
2021/11/12 09:38:36;;;;;;;258.93;245.00;;;18.20;99.90;;;;;;5071443;28;20187;-71
2021/11/12 09:41:06;;;;;;;256.93;242.30;;;18.30;99.90;;;;;;5074008;28;20171;-71
2021/11/12 09:43:35;;;;;;;296.40;280.80;;;18.30;99.90;;;;;;5072850;28;20241;-72
2021/11/12 09:46:05;;;;;;;306.20;289.20;;;18.30;99.90;;;;;;5074937;28;20205;-72
2021/11/12 09:48:33;;;;;;;307.20;291.00;;;18.30;99.90;;;;;;5075351;28;20258;-72
2021/11/12 09:51:00;;;;;;;395.80;375.13;;;18.30;99.90;;;;;;5075483;28;20179;-71
2021/11/12 09:53:28;;;;;;;342.60;324.27;;;18.40;99.90;;;;;;5075854;28;20640;-72
2021/11/12 09:55:56;;;;;;;326.97;308.63;;;18.40;99.90;;;;;;5075155;28;20202;-72
2021/11/12 09:58:23;;;;;;;323.77;306.87;;;18.40;99.90;;;;;;5074818;28;20537;-71
2021/11/12 10:00:57;;;;;;;421.77;399.27;;;18.30;99.90;;;;;;5075579;28;20645;-72
2021/11/12 10:03:44;;;;;;;312.87;296.67;;;18.30;99.90;;;;;;5074668;28;20596;-71
2021/11/12 10:06:27;;;;;;;307.07;291.27;;;18.30;99.90;;;;;;5073687;28;20332;-71
2021/11/12 10:08:56;;;;;;;222.17;210.50;;;18.30;99.90;;;;;;5070009;28;20253;-71
2021/11/12 10:11:32;;;;;;;304.60;288.93;;;18.30;99.90;;;;;;5075190;28;20178;-71
2021/11/12 10:14:02;;;;;;;278.57;263.63;;;18.30;99.90;;;;;;5075135;28;20395;-71
2021/11/12 10:16:37;;;;;;;255.90;242.57;;;18.30;99.90;;;;;;5075260;28;20221;-72
2021/11/12 10:19:17;;;;;;;283.83;268.83;;;18.30;99.90;;;;;;5072331;28;20575;-71
2021/11/12 10:22:01;;;;;;;345.60;327.70;;;18.40;99.90;;;;;;5075511;28;20509;-71
2021/11/12 10:24:35;;;;;;;318.27;301.37;;;18.30;99.90;;;;;;5074460;28;20242;-72
2021/11/12 10:27:14;;;;;;;383.97;363.80;;;18.30;99.90;;;;;;5074709;28;20742;-71
2021/11/12 10:29:46;;;;;;;236.57;223.73;;;18.20;99.90;;;;;;5074607;28;20218;-72
2021/11/12 10:32:23;;;;;;;263.93;249.77;;;18.20;99.90;;;;;;5074520;28;20221;-72
2021/11/12 10:34:53;;;;;;;302.73;286.83;;;18.20;99.90;;;;;;5072489;28;20183;-71
2021/11/12 10:37:25;;;;;;;332.07;314.83;;;18.20;99.90;;;;;;5073972;28;20186;-71
2021/11/12 10:40:13;;;;;;;353.23;334.57;;;18.20;99.90;;;;;;5074161;28;20187;-71
2021/11/12 10:42:44;;;;;;;283.13;267.87;;;18.20;99.90;;;;;;5074253;28;20196;-71
2021/11/12 10:45:20;;;;;;;265.87;251.80;;;18.20;99.90;;;;;;5074749;28;20241;-72
2021/11/12 10:48:03;;;;;;;239.37;226.70;;;18.20;99.90;;;;;;5074160;28;20245;-71
2021/11/12 10:50:34;;;;;;;277.63;263.40;;;18.20;99.90;;;;;;5074193;28;20174;-71
2021/11/12 10:53:18;;;;;;;241.77;228.97;;;18.20;99.90;;;;;;5073006;28;20197;-72
2021/11/12 10:56:05;;;;;;;240.37;226.90;;;18.30;99.90;;;;;;5073409;28;20190;-72
2021/11/12 10:58:33;;;;;;;402.70;380.67;;;18.30;99.90;;;;;;5071829;28;20191;-72
2021/11/12 11:01:03;;;;;;;364.97;346.00;;;18.40;99.90;;;;;;5074239;28;20706;-72
2021/11/12 11:03:30;;;;;;;362.27;343.33;;;18.40;99.90;;;;;;5072237;28;20211;-72
2021/11/12 11:06:03;;;;;;;228.80;216.47;;;18.40;99.90;;;;;;5073138;28;20171;-72
2021/11/12 11:08:34;;;;;;;224.03;212.07;;;18.40;99.90;;;;;;5074076;28;20252;-72
2021/11/12 11:11:10;;;;;;;141.20;133.60;;;18.40;99.90;;;;;;5073962;28;20167;-72
2021/11/12 11:13:40;;;;;;;235.60;222.50;;;18.40;99.90;;;;;;5073334;28;20745;-72
2021/11/12 11:16:22;;;;;;;160.43;150.90;;;18.30;99.90;;;;;;5073006;28;20187;-72
2021/11/12 11:18:56;;;;;;;222.20;209.90;;;18.20;99.90;;;;;;5067901;28;20182;-71
2021/11/12 11:21:25;;;;;;;244.50;231.53;;;18.20;99.90;;;;;;5074030;28;20189;-71
2021/11/12 11:24:04;;;;;;;258.90;245.27;;;18.30;99.90;;;;;;5073786;28;20629;-68
2021/11/12 11:26:46;;;;;;;208.23;196.87;;;18.20;99.90;;;;;;5065969;28;20624;-71
2021/11/12 11:29:15;;;;;;;267.70;253.70;;;18.20;99.90;;;;;;5073740;28;20190;-71
2021/11/12 11:31:43;;;;;;;262.13;248.63;;;18.20;99.90;;;;;;5066810;28;20179;-70
2021/11/12 11:34:11;;;;;;;287.87;272.97;;;18.60;99.90;;;;;;5072585;28;20175;-70
2021/11/12 11:36:44;;;;;;;346.00;328.67;;;18.80;99.90;;;;;;5072880;28;20265;-69
2021/11/12 11:39:15;;;;;;;370.87;351.87;;;19.00;99.90;;;;;;5073597;28;20196;-73
2021/11/12 11:41:47;;;;;;;342.00;324.20;;;19.10;99.90;;;;;;5072935;28;20229;-71
2021/11/12 11:44:19;;;;;;;251.90;238.90;;;19.20;99.90;;;;;;5073159;28;20198;-69
2021/11/12 11:46:50;;;;;;;270.40;256.50;;;19.10;99.90;;;;;;5072988;28;20210;-71
2021/11/12 11:49:20;;;;;;;256.63;243.50;;;19.20;99.90;;;;;;5073392;28;20179;-70
2021/11/12 11:51:55;;;;;;;278.27;263.83;;;19.10;99.90;;;;;;5072562;28;20183;-71
2021/11/12 11:54:25;;;;;;;376.03;356.73;;;19.10;99.90;;;;;;5073060;28;20257;-72
2021/11/12 11:56:56;;;;;;;203.73;193.20;;;19.10;99.90;;;;;;5071593;28;20645;-70
2021/11/12 11:59:28;;;;;;;200.50;189.90;;;19.10;99.90;;;;;;5073093;28;20198;-68
2021/11/12 12:01:56;;;;;;;238.83;226.43;;;19.00;99.90;;;;;;5073044;28;20205;-72
2021/11/12 12:04:26;;;;;;;325.47;308.97;;;19.10;99.90;;;;;;5071998;28;20255;-71
2021/11/12 12:07:03;;;;;;;326.37;309.80;;;19.00;99.90;;;;;;5072764;28;20254;-69
2021/11/12 12:09:47;;;;;;;287.07;272.47;;;19.00;99.90;;;;;;5072314;28;20214;-72
2021/11/12 12:12:30;;;;;;;345.40;327.90;;;19.00;99.90;;;;;;5072702;28;20612;-70
2021/11/12 12:15:21;;;;;;;368.63;349.90;;;18.90;99.90;;;;;;5073078;28;20175;-72
2021/11/12 12:18:05;;;;;;;419.83;398.10;;;18.90;99.90;;;;;;5063178;28;20314;-71
2021/11/12 13:23:16;;;;;;;678.67;630.03;;;17.80;99.90;;;;;;5073734;28;20189;-69
2021/11/12 13:25:46;;;;;;;657.67;610.80;;;17.90;99.90;;;;;;5068052;28;20189;-70
2021/11/12 13:28:30;;;;;;;682.93;631.97;;;17.90;99.90;;;;;;5073304;28;20183;-73
2021/11/12 13:31:08;;;;;;;658.80;610.80;;;17.90;99.90;;;;;;5074282;28;20175;-72
2021/11/12 13:33:46;;;;;;;697.07;644.00;;;17.90;99.90;;;;;;5075109;28;20178;-74
2021/11/12 13:36:23;;;;;;;694.63;643.50;;;17.80;99.90;;;;;;5075145;28;20176;-72
2021/11/12 13:39:22;;;;;;;676.43;623.13;;;17.80;99.90;;;;;;5065645;28;20170;-70
2021/11/12 13:41:55;;;;;;;688.90;633.67;;;17.80;99.90;;;;;;5075662;28;20239;-71
2021/11/12 13:44:25;;;;;;;687.10;629.53;;;17.70;99.90;;;;;;5075121;28;20323;-71
2021/11/12 13:46:55;;;;;;;701.03;643.13;;;17.70;99.90;;;;;;5055993;28;20562;-73
2021/11/12 13:49:42;;;;;;;702.57;651.60;;;17.60;99.90;;;;;;5062966;28;20182;-70
2021/11/12 13:52:10;;;;;;;688.70;636.43;;;17.60;99.90;;;;;;5075881;28;20186;-72
2021/11/12 13:54:48;;;;;;;690.20;637.43;;;17.50;99.90;;;;;;5075951;28;20178;-71
2021/11/12 13:57:20;;;;;;;688.83;640.10;;;17.50;99.90;;;;;;5075694;28;20188;-73
2021/11/12 14:00:01;;;;;;;676.50;623.60;;;17.50;99.90;;;;;;5075554;28;20262;-71
2021/11/12 14:02:30;;;;;;;689.57;637.23;;;17.50;99.90;;;;;;5073623;28;20263;-70
2021/11/12 14:05:11;;;;;;;699.17;645.47;;;17.50;99.90;;;;;;5075657;28;20191;-71
2021/11/12 14:07:39;;;;;;;657.33;605.67;;;17.50;99.90;;;;;;5075222;28;20218;-72
2021/11/12 14:10:13;;;;;;;674.63;620.63;;;17.40;99.90;;;;;;5075760;28;20182;-71
2021/11/12 14:12:58;;;;;;;688.97;638.57;;;17.50;99.90;;;;;;5074874;28;20324;-70
2021/11/12 14:24:01;;;;;;;687.97;636.83;;;17.30;99.90;;;;;;5075319;28;20616;-71
2021/11/12 14:32:32;;;;;;;684.23;629.13;;;17.20;99.90;;;;;;5074244;28;20579;-72
2021/11/12 14:51:46;;;;;;;666.50;612.70;;;16.90;99.90;;;;;;5069501;28;20202;-69
2021/11/12 14:54:14;;;;;;;658.70;605.20;;;16.90;99.90;;;;;;5074722;28;20252;-73
2021/11/12 14:56:50;;;;;;;675.73;623.03;;;16.90;99.90;;;;;;5074595;28;20251;-71
2021/11/12 14:59:18;;;;;;;658.23;605.97;;;16.80;99.90;;;;;;5065726;28;20224;-71
2021/11/12 15:01:46;;;;;;;657.17;605.93;;;16.90;99.90;;;;;;5056493;28;20542;-71
2021/11/12 15:04:16;;;;;;;668.97;617.77;;;16.80;99.90;;;;;;5074073;28;20203;-72
2021/11/12 15:06:44;;;;;;;658.87;602.40;;;16.80;99.90;;;;;;5073208;28;20191;-69
2021/11/12 15:09:22;;;;;;;653.70;600.57;;;16.80;99.90;;;;;;5074035;28;20184;-73
2021/11/12 15:11:51;;;;;;;647.57;593.60;;;16.80;99.90;;;;;;5073982;28;20264;-72
2021/11/12 15:14:43;;;;;;;638.47;588.53;;;16.80;99.90;;;;;;5074138;28;20195;-72
2021/11/12 15:17:08;;;;;;;649.07;598.87;;;16.80;99.90;;;;;;5073227;28;20281;-72
2021/11/12 15:19:37;;;;;;;831.83;772.42;;;16.80;99.90;;;;;;5073318;28;20890;-73
2021/11/12 15:22:56;;;;;;;657.00;603.70;;;16.80;99.90;;;;;;5074235;28;20258;-71
2021/11/12 15:25:11;;;;;;;599.70;556.43;;;16.80;99.90;;;;;;5068530;28;20183;-70
2021/11/12 15:27:51;;;;;;;622.80;570.50;;;16.80;99.90;;;;;;5073697;28;20224;-70
2021/11/12 15:33:08;;;;;;;631.97;581.83;;;16.70;99.90;;;;;;5074008;28;20173;-73
2021/11/12 15:35:34;;;;;;;637.60;587.60;;;16.70;99.90;;;;;;5073151;28;20272;-72
2021/11/12 15:38:23;;;;;;;640.77;590.07;;;16.60;99.90;;;;;;5071277;28;20180;-73
2021/11/12 15:41:05;;;;;;;643.20;592.47;;;16.60;99.90;;;;;;5054005;28;20207;-70
2021/11/12 15:46:23;;;;;;;630.33;577.87;;;16.60;99.90;;;;;;5073586;28;20242;-73
2021/11/12 15:48:50;;;;;;;629.70;575.30;;;16.60;99.90;;;;;;5073246;28;20191;-73
2021/11/12 15:56:52;;;;;;;656.07;604.27;;;16.40;99.90;;;;;;5073613;28;20237;-71
2021/11/12 15:59:32;;;;;;;641.47;590.47;;;16.40;99.90;;;;;;5072617;28;20202;-72
2021/11/12 16:12:51;;;;;;;614.37;568.47;;;16.40;99.90;;;;;;5072806;28;20215;-70
2021/11/12 16:25:43;;;;;;;643.57;586.53;;;16.30;99.90;;;;;;5072839;28;20262;-71
2021/11/12 16:28:18;;;;;;;624.73;568.87;;;16.30;99.90;;;;;;5072784;28;20234;-72
2021/11/12 16:30:55;;;;;;;618.37;563.30;;;16.40;99.90;;;;;;5072875;28;20184;-72
2021/11/12 16:33:24;;;;;;;615.17;563.90;;;16.30;99.90;;;;;;5073108;28;20631;-71
2021/11/12 16:35:53;;;;;;;626.10;572.33;;;16.30;99.90;;;;;;5072687;28;20182;-71
2021/11/12 16:38:27;;;;;;;605.00;554.10;;;16.30;99.90;;;;;;5072814;28;20190;-70
2021/11/12 16:41:04;;;;;;;618.63;569.07;;;16.30;99.90;;;;;;5072915;28;20454;-71
2021/11/12 16:43:41;;;;;;;613.37;567.77;;;16.20;99.90;;;;;;5072011;28;20179;-70
2021/11/12 16:51:53;;;;;;;612.67;568.17;;;16.00;99.90;;;;;;5072761;28;20210;-69
2021/11/12 17:09:43;;;;;;;602.70;547.20;;;15.80;99.90;;;;;;5072251;28;20171;-69
2021/11/12 17:47:42;;;;;;;597.23;548.00;;;15.60;99.90;;;;;;5071712;28;20215;-71
2021/11/12 18:03:33;;;;;;;544.57;504.93;;;15.40;99.90;;;;;;5076075;28;20177;-69
2021/11/12 18:06:09;;;;;;;565.20;522.73;;;15.30;99.90;;;;;;5074709;28;20206;-69
2021/11/12 18:11:43;;;;;;;559.57;518.03;;;15.30;99.90;;;;;;5063023;28;20207;-69
2021/11/12 21:45:53;;;;;;;675.23;620.77;;;17.80;97.20;;;;;;5075382;28;20574;-72
2021/11/12 21:48:21;;;;;;;671.50;617.03;;;17.80;97.30;;;;;;5074345;28;20618;-74
2021/11/12 21:50:53;;;;;;;664.20;611.57;;;17.90;97.00;;;;;;5074699;28;20311;-70
2021/11/12 21:53:25;;;;;;;670.20;616.80;;;17.90;96.70;;;;;;5074704;28;20186;-73
2021/11/12 21:55:54;;;;;;;716.23;648.47;;;17.90;96.60;;;;;;5074078;28;20179;-70
2021/11/12 21:58:22;;;;;;;799.20;631.27;;;17.90;96.20;;;;;;5074340;28;20636;-67
2021/11/12 22:00:50;;;;;;;754.03;645.43;;;17.90;96.10;;;;;;5074737;28;20295;-69
2021/11/12 22:03:18;;;;;;;760.27;662.70;;;17.90;95.90;;;;;;5075026;28;20535;-69
2021/11/12 22:05:46;;;;;;;932.00;661.20;;;18.00;96.40;;;;;;5075055;28;20636;-74
2021/11/12 22:08:13;;;;;;;899.13;657.33;;;18.00;95.60;;;;;;5075038;28;20596;-71
2021/11/12 22:10:42;;;;;;;883.83;667.50;;;18.00;96.10;;;;;;5074807;28;20178;-74
2021/11/12 22:13:09;;;;;;;895.30;671.23;;;18.20;95.90;;;;;;5074353;28;20688;-69
2021/11/12 22:15:39;;;;;;;872.43;666.13;;;18.20;96.00;;;;;;5062554;28;20195;-70
2021/11/12 22:18:08;;;;;;;857.50;665.33;;;18.30;95.60;;;;;;5074241;28;20634;-70
2021/11/12 22:20:36;;;;;;;842.50;653.20;;;18.30;95.30;;;;;;5074378;28;20189;-72
2021/11/12 22:23:04;;;;;;;846.00;656.47;;;18.30;95.80;;;;;;5075274;28;20163;-73
2021/11/12 22:25:32;;;;;;;861.17;670.93;;;18.40;95.60;;;;;;5074452;28;20182;-73
2021/11/12 22:27:59;;;;;;;868.47;693.00;;;18.50;95.80;;;;;;5073097;28;20195;-71
2021/11/12 22:30:26;;;;;;;840.70;707.23;;;18.70;95.40;;;;;;5072411;28;20183;-71